Kimberley Downs, Australia
Current Conditions -  °F | °C
As of 4:30 PM on Saturday 29 Nov 2014 (Local Time) from YCIN Reporting Station
Clear Clear  
Wind Chill: 91°   Ceiling: Unl
Heat Index: 98°   Visibility: NA
Dew Point: 72°   Wind: 12mph
Humidity: 52%   Direction: 290°WNW
Pressure: 29.62"   Gusts: NA
Location:  17.4°S, 124.35°E
Report Text: YCIN 290830Z AUTO 29010KT //// // NCD 33/22 Q1003
Loading
Personal Weather Stations






























Interactive Weather Map New forecast layout! Learn more

10-Day Weather Forecast

Advertisements
Track Severe Weather on mobile